НИСЛЭГИЙН ЦАГ УУРЫН ТӨВ

2017.12.14        EN 

Идэвхитэй хуудас: Нүүр хуудас arrow TAF&METAR arrow Latest arrow METAR 120000




Их уншигдсан
Сүүлд нэмэгдсэн
METAR 120000 Хэвлэ Имэйл
Бичсэн: Administrator   
Thursday, 11 November 2010
SAMO31 ZMUH 112350
METAR ZMUH 120000Z 00000MPS 7000 SN OVC090 M15/M19 Q1008 NOSIG RMK QFE666.7 80=
SAMO31 ZMBH 112351
METAR ZMBH 120000Z VRB01MPS CAVOK M17/M23 Q1011 NOSIG RMK QFE605.2 59=
SAMO31 ZMUB 112352
METAR ZMUB 120000Z 32005MPS 9999 -SN FEW020 SCT030 M13/M15 Q1009 NOSIG RMK QFE650.8 84=
METAR ZMGT 120000Z 34013MPS 9999 SCT030 SCT100 M06/M16 Q1011 NOSIG RMK QFE627.5 39=
METAR ZMOT 120000Z 34003MPS 9999 SCT050 BKN080 M04/M07 Q1010 NOSIG RMK QFE656.8 81=
METAR ZMTL 120000Z VRB02MPS 9999 BKN040 M22/M24 Q1018 NOSIG RMK QFE621.0 96=
SAMO31 ZMUL 112353
METAR ZMUL 120000Z 31003MPS CAVOK M11/M20 Q1018 NOSIG RMK QFE619.2 40%=
SAMO31 ZMUG 112353
METAR ZMUG 120000Z VRB01MPS 9999 SCT100 M11/M13 Q1025 NOSIG RMK QFE686.6 85=
SAMO31 ZMKD 112352
METAR ZMKD 120000Z 09002MPS //// SCT040 SCT100 M07/M10 Q1027 NOSIG RMK QFE641.0 78=3D=
SAMO31 ZMMG 112354
METAR ZMMG 120000Z 34007MPS CAVOK M12/M16 Q1009 NOSIG RMK QFE639.8 72=
SAMO31 ZMAT 112355
METAR ZMAT 120000Z 05002MPS //// SCT030 SCT100 M15/M18 Q1015 NOSIG RMK QFE583.9 79=
SAMO31 ZMCD 112355
METAR ZMCD 120000Z VRB01MPS 8000 OVC080 M14/M16 Q1009 NOSIG RMK ST QFE692.2 84=
SAMO31 ZMBU 112355
METAR ZMBU 120000Z 05002MPS 9999 SCT100 M12/M15 Q1005 NOSIG RMK QFE670.6 78=
SAMO31 ZMDZ 112355
METAR ZMDZ 120000Z 32008MPS 9999 BKN030 M08/M11 Q1012 NOSIG RMK QFE637.0 80=
SAMO31 ZMAH 112358
METAR ZMAH 120000Z 30005MPS 9999 SCT080 M14/M21 Q1010 NOSIG RMK QFE608.2 54=3D=
SAMO31 ZMMN 112358
METAR ZMMN 120000Z 29004MPS 9999 BKN100 M11/M21 Q1019 NOSIG RMK QFE654.3 47=
SAMO31 ZMED 120000
METAR ZMED 120000Z 34004MPS 9999 SCT100 SCT200 M11/M18 Q1014 NOSIG RMK QFE650.6 53=
SAMO31 ZMSH 120000
METAR ZMSH 120000Z 32005MPS 9999 OVC030 M06/M12 Q1012 NOSIG RMK QFE673.9 65=
Шинэчилсэн: ( Thursday, 11 November 2010 )
 
Дараах >
Онлайнд
Гишүүд: 258
Мэдээ: 325
Вэб холбоосууд: 10
Зочлогчид: 795448